EDT,Max TemperatureF,Mean TemperatureF,Min TemperatureF,Max Dew PointF,MeanDew PointF,Min DewpointF,Max Humidity, Mean Humidity, Min Humidity, Max Sea Level PressureIn, Mean Sea Level PressureIn, Min Sea Level PressureIn, Max VisibilityMiles, Mean VisibilityMiles, Min VisibilityMiles, Max Wind SpeedMPH, Mean Wind SpeedMPH, Max Gust SpeedMPH,PrecipitationIn, CloudCover, Events, WindDirDegrees
2013-6-1,80,72,64,66,64,62,93,79,64,30.04,30.00,29.96,10,10,6,13,7,24,0.00,0,,205
2013-6-2,73,68,64,64,62,61,94,83,71,29.95,29.89,29.83,10,9,6,20,12,28,0.00,2,,207
2013-6-3,72,67,62,68,64,61,100,92,78,29.87,29.85,29.81,10,7,1,14,8,18,0.38,7,Rain,206
2013-6-4,73,64,54,57,46,41,90,54,33,30.10,29.99,29.87,10,10,10,16,10,24,0.00,1,,317
2013-6-5,70,60,51,52,47,41,93,62,36,30.22,30.17,30.11,10,10,10,14,5,17,0.00,0,,134
2013-6-6,71,60,51,58,53,47,94,76,44,30.17,30.13,30.04,10,10,6,12,3,20,0.00,2,,134
2013-6-7,68,62,57,67,60,55,100,95,83,30.03,29.83,29.65,10,4,0,20,6,36,4.09,8,Fog-Rain,84
2013-6-8,73,64,55,66,61,54,100,87,68,30.05,29.75,29.52,10,7,2,20,13,26,0.17,6,Rain,242
2013-6-9,77,66,57,61,58,55,97,72,48,30.19,30.14,30.06,10,9,6,12,3,,0.00,1,,218
2013-6-10,71,66,60,64,61,58,100,93,78,30.18,30.06,29.88,9,3,0,9,3,16,2.06,7,Fog-Rain,119
2013-6-11,78,72,66,68,65,59,100,86,66,29.87,29.72,29.61,10,7,0,18,10,24,0.40,6,Fog-Rain,218
2013-6-12,75,65,57,56,52,50,84,58,44,29.86,29.76,29.66,10,10,10,20,13,34,0.00,1,,305
2013-6-13,64,58,53,59,56,51,97,87,72,29.83,29.67,29.49,10,8,2,13,4,25,0.55,6,Rain,110
2013-6-14,72,62,53,55,52,50,97,81,49,29.86,29.68,29.49,10,9,2,15,11,26,0.32,5,Rain,345
2013-6-15,80,70,61,60,53,46,90,61,33,29.99,29.94,29.86,10,10,8,13,9,17,0.00,0,,301
2013-6-16,75,65,55,64,60,54,97,77,53,29.99,29.90,29.78,10,9,4,14,4,22,0.00,1,,212
2013-6-17,82,72,64,66,64,62,93,77,58,29.92,29.89,29.85,10,9,5,15,5,21,0.00,0,,222
2013-6-18,79,70,62,66,64,60,97,88,64,29.91,29.88,29.84,10,6,0,13,2,20,0.18,6,Fog-Rain,172
2013-6-19,77,68,60,61,55,43,94,72,32,30.17,30.00,29.87,10,10,10,13,8,21,0.00,3,,337
2013-6-20,75,63,53,58,54,49,93,69,41,30.29,30.26,30.20,10,10,9,13,5,,0.00,0,,211
2013-6-21,77,67,59,58,54,51,83,61,43,30.32,30.29,30.27,10,10,10,14,7,21,0.00,0,,211
2013-6-22,80,69,60,65,60,51,94,74,42,30.28,30.24,30.17,10,10,7,14,6,,0.00,0,,203
2013-6-23,81,73,66,71,66,59,93,79,62,30.20,30.15,30.09,10,10,10,16,8,24,0.00,3,,204
2013-6-24,89,80,71,73,70,61,97,76,55,30.08,30.03,29.96,10,9,6,18,7,31,0.00,3,,229
2013-6-25,90,79,68,71,68,63,87,70,45,29.99,29.90,29.80,10,10,8,14,4,21,0.00,0,,220
2013-6-26,87,80,73,70,68,65,87,71,51,29.84,29.82,29.77,10,10,8,12,7,18,0.00,1,,232
2013-6-27,82,75,69,72,70,67,96,84,70,29.82,29.76,29.64,10,8,2,16,6,23,0.01,5,Rain,153
2013-6-28,80,75,71,72,70,69,94,87,74,29.64,29.56,29.53,10,6,3,18,13,25,0.00,6,Rain,196
2013-6-29,79,74,70,70,69,68,94,85,69,29.74,29.62,29.51,10,9,4,17,9,24,0.01,5,Rain,197
2013-6-30,78,73,71,72,70,68,100,92,82,29.95,29.85,29.74,10,4,1,15,8,23,0.08,7,Rain,190